Monday, June 25, 2018, 9:25 AM EDT
Back to Local

KPVD, Providence Green State Airport

Location: Warwick, RI, United States Lat: 41.733
Local Time: 9:25 AM EDT (13:25 GMT) Lon: -71.433
Time Zone: US/Eastern Elev: 55 ft

Show me the last for .
Show Decoded

2018-06-25 08:51 METAR KPVD 251251Z 36011KT 10SM SCT024 SCT029 22/16 A2987 RMK AO2 SLP115
                 T02220161 =
2018-06-25 08:33 METAR KPVD 251233Z 34008KT 10SM FEW020 SCT025 SCT030 22/16 A2987 RMK AO2
                 T02170161 =
2018-06-25 08:23 METAR KPVD 251223Z 32008KT 10SM SCT019 BKN024 BKN030 21/16 A2987 RMK AO2
                 T02060161 =
2018-06-25 07:51 METAR KPVD 251151Z 01006KT 10SM FEW019 21/17 A2987 RMK AO2 SLP112 70022
                 T02060167 10206 20189 53021 =
2018-06-25 07:03 METAR KPVD 251103Z 34009KT 10SM SCT015 19/16 A2984 RMK AO2 T01940161 =
2018-06-25 06:51 METAR KPVD 251051Z 34010KT 10SM BKN015 19/17 A2984 RMK AO2 SLP104 T01890167 =
2018-06-25 06:39 METAR KPVD 251039Z 35012KT 10SM BKN015 19/16 A2983 RMK AO2 T01890161 =
2018-06-25 06:32 METAR KPVD 251032Z 35012G19KT 10SM BKN013 BKN032 19/17 A2983 RMK AO2 T01890167 =
2018-06-25 06:15 METAR KPVD 251015Z 36012G16KT 10SM SCT013 BKN030 19/17 A2983 RMK AO2 T01890172 =
2018-06-25 05:51 METAR KPVD 250951Z 01010KT 10SM SCT011 BKN019 BKN028 19/17 A2980 RMK AO2 SLP091
                 T01890172 =
2018-06-25 04:51 METAR KPVD 250851Z AUTO 35012KT 10SM OVC012 19/18 A2979 RMK AO2 SLP086 T01940183
                 53011 =
2018-06-25 04:30 METAR KPVD 250830Z AUTO 34010KT 10SM BKN012 OVC029 20/18 A2979 RMK AO2 T02000183
                 =
2018-06-25 03:51 METAR KPVD 250751Z AUTO 33007KT 10SM OVC017 21/19 A2977 RMK AO2 SLP080 T02060194
                 =
2018-06-25 03:35 METAR KPVD 250735Z AUTO 30006KT 10SM BKN015 20/19 A2976 RMK AO2 T02000194 =
2018-06-25 02:58 METAR KPVD 250658Z AUTO 26004KT 10SM SCT015 20/19 A2975 =
2018-06-25 02:51 METAR KPVD 250651Z AUTO 27003KT 10SM FEW009 BKN015 20/19 A2975 RMK AO2 SLP074
                 T02000194 =
2018-06-25 02:17 METAR KPVD 250617Z AUTO 00000KT 10SM OVC009 19/19 A2976 =
2018-06-25 01:51 METAR KPVD 250551Z AUTO 18004KT 10SM OVC010 19/19 A2976 RMK AO2 SLP076 60015
                 T01940194 10211 20194 58013 =
2018-06-25 00:51 METAR KPVD 250451Z AUTO 19004KT 8SM OVC011 19/19 A2978 RMK AO2 SLP083 T01940194
                 402610156 =
2018-06-24 23:51 METAR KPVD 250351Z 00000KT 10SM BKN010 BKN090 BKN130 19/19 A2980 RMK AO2 SLP088
                 RAE0252 LAST P0000 T01940189 =
2018-06-24 23:30 METAR KPVD 250330Z 00000KT 10SM SCT004 BKN140 OVC160 19/19 A2980 RMK AO2 RAE0252
                 P0000 T01940189 =
2018-06-24 22:51 METAR KPVD 250251Z COR 21007KT 5SM -RA BR BKN002 BKN030 BKN080 OVC130 19/19
                 A2979 RMK AO2 LTG DSNT S CB DSNT SE-S MOV E SLP088 P0002 60015 T01940194 55007 =
2018-06-24 22:34 METAR KPVD 250234Z 17013KT 6SM -RA BR BKN002 BKN100 OVC130 19/19 A2979 RMK AO2
                 P0001 T01940189 =
2018-06-24 21:51 METAR KPVD 250151Z COR 13004KT 3SM -RA BR SCT010 SCT037 BKN090 OVC130 20/19
                 A2979 RMK AO2 LTG DSNT SE AND S SLP087 TSE22 TS MOV SE-S CB DSNT SE-SW MOV E
                 P0004 T02000194 =
2018-06-24 21:37 METAR KPVD 250137Z 17005KT 4SM -RA BR SCT004 BKN012 BKN080 OVC130 20/19 A2980
                 RMK AO2 LTG DSNT SE TSE22 CIG 010V016 TS MOV SE-S CB DSNT SE-S MOV E P0002
                 T02000194 =
2018-06-24 21:27 METAR KPVD 250127Z 18006KT 4SM -RA BR FEW004 FEW021 SCT080 BKN130 OVC300 20/19
                 A2981 RMK AO2 LTG DSNT S TSE22 TS MOV SE-S CB DSNT SE-S MOV E P0002 T02000194 =
2018-06-24 20:51 METAR KPVD 250051Z COR 17007KT 4SM -TSRA BR FEW004 SCT030CB BKN090 OVC130 20/19
                 A2981 RMK AO2 LTG DSNT S OCNL LTGICCCCA S-SW TSB43 TS S-SW MOV E SLP093 P0009
                 T02000194 =
2018-06-24 20:45 METAR KPVD 250045Z COR 15005KT 3SM TSRA BR FEW004 SCT017CB OVC095 20/19 A2980 =
2018-06-24 19:51 METAR KPVD 242351Z 00000KT 9SM -RA FEW009 BKN042 BKN070 OVC130 21/20 A2981 RMK
                 AO2 SLP095 P0007 60007 T02110200 10250 20211 53004 =
2018-06-24 18:51 METAR KPVD 242251Z 19007KT 10SM -RA FEW035 SCT090 BKN110 BKN140 BKN300 23/19
                 A2980 RMK AO2 SLP090 RAB35 P0000 T02280189 =
2018-06-24 18:17 METAR KPVD 242217Z 19008KT 10SM SCT018 SCT050 BKN085 BKN130 BKN300 23/18 A2980
                 RMK AO2 T02330183 =
2018-06-24 17:51 METAR KPVD 242151Z 21010KT 10SM BKN019 BKN050 BKN110 OVC300 24/18 A2980 RMK AO2
                 SLP091 CIG 017V023 T02390183 =
2018-06-24 16:51 METAR KPVD 242051Z 15008KT 10SM OVC019 22/18 A2980 RMK AO2 SLP091 BINOVC CIG
                 017V024 T02220183 58006 =
2018-06-24 15:51 METAR KPVD 241951Z 21009KT 10SM BKN018 BKN026 BKN050 OVC250 23/18 A2981 RMK AO2
                 SLP095 T02330183 =
2018-06-24 14:51 METAR KPVD 241851Z 22012KT 10SM BKN023 BKN030 BKN250 24/18 A2982 RMK AO2 SLP098
                 T02390183 =
2018-06-24 13:51 METAR KPVD 241751Z 23007KT 10SM BKN025 BKN050 24/18 A2982 RMK AO2 SLP097
                 T02440183 10261 20178 56010 =
2018-06-24 12:51 METAR KPVD 241651Z 26007KT 10SM BKN020 24/18 A2983 RMK AO2 SLP100 T02390178 =
2018-06-24 11:51 METAR KPVD 241551Z 26010KT 10SM OVC018 23/18 A2984 RMK AO2 SLP103 T02330178 =
2018-06-24 10:58 METAR KPVD 241458Z 24011KT 10SM OVC015 23/17 A2985 =
2018-06-24 10:51 METAR KPVD 241451Z 27009G15KT 10SM OVC014 22/17 A2985 RMK AO2 SLP107 T02220172
                 53004 =
2018-06-24 09:51 METAR KPVD 241351Z 28007KT 10SM OVC014 21/17 A2984 RMK AO2 SLP102 T02110167 =

Support USWX by starting your Amazon purchase here.